createdAt,value
2022-10-12T00:00:41.648Z,100.00
2022-10-12T00:03:29.377Z,100.00
2022-10-12T00:06:13.981Z,100.00
2022-10-12T00:08:43.843Z,100.00
2022-10-12T00:11:17.001Z,100.00
2022-10-12T00:13:44.787Z,100.00
2022-10-12T00:16:20.960Z,100.00
2022-10-12T00:18:54.551Z,100.00
2022-10-12T00:21:23.053Z,100.00
2022-10-12T00:23:51.293Z,100.00
2022-10-12T00:26:23.886Z,100.00
2022-10-12T00:28:58.279Z,100.00
2022-10-12T00:31:27.253Z,100.00
2022-10-12T00:33:55.680Z,100.00
2022-10-12T00:36:24.420Z,100.00
2022-10-12T00:38:53.855Z,100.00
2022-10-12T00:41:26.146Z,100.00
2022-10-12T00:43:58.171Z,100.00
2022-10-12T00:46:34.601Z,100.00
2022-10-12T00:49:25.846Z,100.00
2022-10-12T00:52:02.666Z,100.00
2022-10-12T00:54:36.420Z,100.00
2022-10-12T00:57:06.225Z,100.00
2022-10-12T01:00:00.737Z,100.00
2022-10-12T01:02:32.344Z,100.00
2022-10-12T01:05:00.763Z,100.00
2022-10-12T01:07:28.511Z,100.00
2022-10-12T01:09:55.988Z,100.00
2022-10-12T01:12:24.671Z,100.00
2022-10-12T01:14:52.262Z,100.00
2022-10-12T01:17:25.565Z,100.00
2022-10-12T01:20:36.643Z,100.00
2022-10-12T01:23:19.175Z,100.00
2022-10-12T01:26:31.558Z,100.00
2022-10-12T01:29:42.792Z,100.00
2022-10-12T01:32:26.838Z,100.00
2022-10-12T01:35:01.338Z,100.00
2022-10-12T01:37:51.380Z,100.00
2022-10-12T01:40:48.337Z,100.00
2022-10-12T01:43:18.666Z,100.00
2022-10-12T01:45:46.530Z,100.00
2022-10-12T01:48:14.128Z,100.00
2022-10-12T01:50:55.661Z,100.00
2022-10-12T01:53:44.568Z,100.00
2022-10-12T01:56:14.595Z,100.00
2022-10-12T01:59:05.300Z,100.00
2022-10-12T02:01:46.322Z,100.00
2022-10-12T02:04:33.500Z,100.00
2022-10-12T02:07:32.816Z,100.00
2022-10-12T02:10:07.562Z,100.00
2022-10-12T02:12:35.915Z,100.00
2022-10-12T02:15:07.592Z,100.00
2022-10-12T02:17:35.734Z,100.00
2022-10-12T02:20:04.663Z,100.00
2022-10-12T02:22:38.671Z,100.00
2022-10-12T02:25:15.360Z,100.00
2022-10-12T02:27:51.617Z,100.00
2022-10-12T02:30:21.358Z,100.00
2022-10-12T02:33:03.731Z,100.00
2022-10-12T02:35:58.732Z,100.00
2022-10-12T02:38:35.372Z,100.00
2022-10-12T02:41:09.810Z,100.00
2022-10-12T02:43:47.124Z,100.00
2022-10-12T02:46:18.512Z,100.00
2022-10-12T02:48:48.638Z,100.00
2022-10-12T02:51:17.529Z,100.00
2022-10-12T02:53:46.026Z,100.00
2022-10-12T02:56:16.416Z,100.00
2022-10-12T02:58:46.438Z,100.00
2022-10-12T03:01:17.058Z,100.00
2022-10-12T03:03:45.988Z,100.00
2022-10-12T03:06:14.004Z,100.00
2022-10-12T03:08:41.486Z,100.00
2022-10-12T03:11:14.193Z,100.00
2022-10-12T03:13:41.858Z,100.00
2022-10-12T03:16:11.585Z,100.00
2022-10-12T03:18:39.099Z,100.00
2022-10-12T03:21:06.804Z,100.00
2022-10-12T03:23:34.584Z,100.00
2022-10-12T03:26:02.205Z,100.00
2022-10-12T03:28:29.933Z,100.00
2022-10-12T03:30:58.734Z,100.00
2022-10-12T03:33:26.363Z,100.00
2022-10-12T03:35:54.014Z,100.00
2022-10-12T03:38:21.760Z,100.00
2022-10-12T03:40:49.261Z,100.00
2022-10-12T03:43:17.392Z,100.00
2022-10-12T03:45:45.006Z,100.00
2022-10-12T03:48:12.719Z,100.00
2022-10-12T03:50:40.341Z,100.00
2022-10-12T03:53:08.374Z,100.00
2022-10-12T03:55:35.925Z,100.00
2022-10-12T03:58:03.770Z,100.00
2022-10-12T04:00:31.556Z,100.00
2022-10-12T04:02:59.349Z,100.00
2022-10-12T04:05:26.837Z,100.00
2022-10-12T04:07:54.442Z,100.00
2022-10-12T04:10:22.829Z,100.00
2022-10-12T04:12:50.328Z,100.00
2022-10-12T04:15:18.476Z,100.00
2022-10-12T04:17:46.640Z,100.00
2022-10-12T04:20:14.386Z,100.00
2022-10-12T04:22:42.210Z,100.00
2022-10-12T04:25:12.135Z,100.00
2022-10-12T04:27:40.254Z,100.00
2022-10-12T04:30:09.047Z,100.00
2022-10-12T04:32:36.933Z,100.00
2022-10-12T04:35:04.756Z,100.00
2022-10-12T04:37:32.474Z,100.00
2022-10-12T04:40:00.144Z,100.00
2022-10-12T04:42:27.862Z,100.00
2022-10-12T04:44:56.111Z,100.00
2022-10-12T04:47:24.286Z,100.00
2022-10-12T04:49:52.009Z,100.00
2022-10-12T04:52:19.798Z,100.00
2022-10-12T04:54:47.361Z,100.00
2022-10-12T04:57:15.145Z,100.00
2022-10-12T04:59:42.716Z,100.00
2022-10-12T05:02:10.769Z,100.00
2022-10-12T05:04:38.366Z,100.00
2022-10-12T05:07:05.849Z,100.00
2022-10-12T05:09:33.629Z,100.00
2022-10-12T05:12:01.165Z,100.00
2022-10-12T05:14:33.492Z,100.00
2022-10-12T05:17:03.762Z,100.00
2022-10-12T05:19:31.504Z,100.00
2022-10-12T05:21:58.976Z,100.00
2022-10-12T05:24:26.708Z,100.00
2022-10-12T05:26:54.297Z,100.00
2022-10-12T05:29:22.024Z,100.00
2022-10-12T05:31:49.510Z,100.00
2022-10-12T05:34:17.256Z,100.00
2022-10-12T05:36:44.708Z,100.00
2022-10-12T05:39:12.418Z,100.00
2022-10-12T05:41:39.984Z,100.00
2022-10-12T05:44:07.989Z,100.00
2022-10-12T05:46:35.496Z,100.00
2022-10-12T05:49:03.471Z,100.00
2022-10-12T05:51:31.048Z,100.00
2022-10-12T05:53:58.811Z,100.00
2022-10-12T05:56:26.296Z,100.00
2022-10-12T05:58:54.106Z,100.00
2022-10-12T06:01:21.853Z,100.00
2022-10-12T06:03:49.727Z,100.00
2022-10-12T06:06:17.828Z,100.00
2022-10-12T06:08:45.597Z,100.00
2022-10-12T06:11:13.774Z,100.00
2022-10-12T06:14:00.932Z,100.00
2022-10-12T06:16:28.668Z,100.00
2022-10-12T06:18:56.556Z,100.00
2022-10-12T06:21:39.479Z,100.00
2022-10-12T06:24:07.620Z,100.00
2022-10-12T06:26:35.151Z,100.00
2022-10-12T06:29:04.652Z,100.00
2022-10-12T06:31:33.971Z,100.00
2022-10-12T06:34:01.595Z,100.00
2022-10-12T06:36:29.427Z,100.00
2022-10-12T06:38:57.008Z,100.00
2022-10-12T06:41:24.946Z,100.00
2022-10-12T06:43:52.417Z,100.00
2022-10-12T06:46:20.385Z,100.00
2022-10-12T06:48:47.951Z,100.00
2022-10-12T06:51:15.781Z,100.00
2022-10-12T06:53:43.322Z,100.00
2022-10-12T06:56:12.414Z,100.00
2022-10-12T06:58:40.214Z,100.00
2022-10-12T07:01:10.786Z,100.00
2022-10-12T07:03:38.727Z,100.00
2022-10-12T07:06:13.312Z,100.00
2022-10-12T07:08:42.193Z,100.00
2022-10-12T07:11:13.764Z,100.00
2022-10-12T07:13:41.801Z,100.00
2022-10-12T07:16:09.681Z,100.00
2022-10-12T07:18:37.421Z,100.00
2022-10-12T07:21:05.310Z,100.00
2022-10-12T07:23:34.383Z,100.00
2022-10-12T07:26:02.222Z,100.00
2022-10-12T07:28:30.026Z,100.00
2022-10-12T07:31:06.692Z,100.00
2022-10-12T07:33:35.918Z,100.00
2022-10-12T07:36:13.802Z,100.00
2022-10-12T07:38:47.122Z,100.00
2022-10-12T07:41:15.774Z,100.00
2022-10-12T07:43:43.665Z,100.00
2022-10-12T07:46:12.197Z,100.00
2022-10-12T07:48:45.731Z,100.00
2022-10-12T07:51:17.070Z,100.00
2022-10-12T07:53:44.620Z,100.00
2022-10-12T07:56:17.108Z,100.00
2022-10-12T07:58:51.049Z,100.00
2022-10-12T08:01:21.017Z,100.00
2022-10-12T08:03:49.546Z,100.00
2022-10-12T08:06:22.221Z,100.00
2022-10-12T08:08:51.017Z,100.00
2022-10-12T08:11:20.289Z,100.00
2022-10-12T08:13:48.192Z,100.00
2022-10-12T08:16:19.865Z,100.00
2022-10-12T08:18:47.954Z,100.00
2022-10-12T08:21:17.407Z,100.00
2022-10-12T08:23:45.838Z,100.00
2022-10-12T08:26:16.036Z,100.00
2022-10-12T08:28:43.927Z,100.00
2022-10-12T08:31:15.314Z,100.00
2022-10-12T08:33:43.022Z,100.00
2022-10-12T08:36:12.128Z,100.00
2022-10-12T08:38:39.754Z,100.00
2022-10-12T08:41:44.727Z,100.00
2022-10-12T08:44:42.869Z,100.00
2022-10-12T08:47:33.407Z,100.00
2022-10-12T08:50:04.016Z,100.00
2022-10-12T08:52:49.157Z,100.00
2022-10-12T08:55:37.217Z,100.00
2022-10-12T08:58:20.643Z,100.00
2022-10-12T09:00:53.716Z,100.00
2022-10-12T09:03:54.881Z,100.00
2022-10-12T09:06:34.169Z,100.00
2022-10-12T09:09:46.542Z,100.00
2022-10-12T09:12:32.973Z,100.00
2022-10-12T09:15:10.499Z,100.00
2022-10-12T09:17:54.777Z,100.00
2022-10-12T09:20:54.590Z,100.00
2022-10-12T09:23:33.890Z,99.88
2022-10-12T09:26:27.396Z,98.49
2022-10-12T09:28:58.208Z,98.44
2022-10-12T09:32:05.345Z,98.16
2022-10-12T09:34:33.088Z,97.33
2022-10-12T09:37:04.461Z,96.09
2022-10-12T09:39:37.830Z,97.39
2022-10-12T09:42:05.729Z,97.61
2022-10-12T09:44:42.400Z,96.02
2022-10-12T09:47:32.406Z,94.49
2022-10-12T09:50:04.206Z,95.02
2022-10-12T09:52:43.371Z,95.52
2022-10-12T09:55:16.964Z,95.18
2022-10-12T09:57:57.703Z,94.80
2022-10-12T10:00:32.426Z,95.21
2022-10-12T10:03:02.345Z,94.54
2022-10-12T10:05:36.632Z,94.15
2022-10-12T10:08:23.548Z,90.35
2022-10-12T10:10:59.338Z,89.49
2022-10-12T10:13:30.650Z,89.05
2022-10-12T10:16:07.937Z,88.97
2022-10-12T10:18:50.111Z,87.51
2022-10-12T10:21:39.684Z,87.03
2022-10-12T10:24:30.849Z,87.20
2022-10-12T10:27:05.279Z,87.57
2022-10-12T10:29:41.740Z,87.34
2022-10-12T10:32:26.440Z,87.10
2022-10-12T10:35:12.519Z,85.43
2022-10-12T10:37:50.239Z,84.32
2022-10-12T10:40:29.341Z,83.19
2022-10-12T10:43:19.892Z,81.72
2022-10-12T10:45:57.273Z,80.49
2022-10-12T10:48:56.109Z,77.98
2022-10-12T10:51:39.030Z,75.91
2022-10-12T10:54:24.511Z,76.40
2022-10-12T10:57:11.462Z,74.70
2022-10-12T10:59:51.218Z,74.99
2022-10-12T11:02:53.728Z,75.28
2022-10-12T11:05:43.331Z,75.28
2022-10-12T11:08:26.801Z,74.43
2022-10-12T11:11:04.726Z,73.51
2022-10-12T11:13:55.509Z,70.15
2022-10-12T11:17:02.347Z,70.77
2022-10-12T11:19:49.548Z,69.81
2022-10-12T11:22:29.824Z,69.52
2022-10-12T11:25:26.422Z,69.47
2022-10-12T11:27:54.139Z,68.60
2022-10-12T11:30:26.516Z,68.04
2022-10-12T11:33:08.331Z,68.37
2022-10-12T11:35:41.458Z,67.79
2022-10-12T11:38:26.693Z,68.87
2022-10-12T11:41:31.114Z,69.82
2022-10-12T11:44:04.062Z,70.89
2022-10-12T11:46:59.271Z,70.03
2022-10-12T11:49:50.774Z,69.92
2022-10-12T11:52:19.907Z,69.34
2022-10-12T11:55:19.297Z,69.14
2022-10-12T11:57:48.445Z,68.45
2022-10-12T12:00:27.606Z,68.08
2022-10-12T12:03:36.863Z,68.33
2022-10-12T12:06:43.274Z,67.54
2022-10-12T12:09:39.690Z,68.58
2022-10-12T12:12:11.856Z,65.78
2022-10-12T12:14:53.137Z,66.81
2022-10-12T12:17:20.586Z,67.41
2022-10-12T12:19:49.961Z,67.32
2022-10-12T12:22:18.542Z,67.51
2022-10-12T12:25:08.555Z,66.72
2022-10-12T12:27:45.045Z,66.47
2022-10-12T12:30:17.987Z,66.02
2022-10-12T12:33:01.262Z,66.02
2022-10-12T12:35:31.451Z,65.80
2022-10-12T12:38:30.606Z,65.74
2022-10-12T12:41:19.786Z,65.94
2022-10-12T12:44:00.039Z,66.33
2022-10-12T12:46:56.413Z,65.53
2022-10-12T12:49:46.239Z,66.05
2022-10-12T12:52:38.930Z,66.77
2022-10-12T12:55:43.641Z,67.52
2022-10-12T12:58:29.489Z,66.68
2022-10-12T13:01:06.227Z,66.96
2022-10-12T13:04:01.101Z,66.70
2022-10-12T13:07:17.731Z,66.46
2022-10-12T13:10:07.699Z,66.45
2022-10-12T13:13:16.707Z,66.09
2022-10-12T13:17:30.861Z,66.73
2022-10-12T13:19:35.336Z,66.04
2022-10-12T13:22:12.904Z,65.72
2022-10-12T13:24:58.915Z,64.13
2022-10-12T13:27:34.196Z,64.97
2022-10-12T13:30:12.687Z,66.28
2022-10-12T13:33:11.527Z,67.04
2022-10-12T13:35:45.030Z,67.37
2022-10-12T13:38:15.311Z,67.69
2022-10-12T13:40:52.720Z,66.28
2022-10-12T13:43:44.467Z,65.98
2022-10-12T13:46:34.176Z,66.27
2022-10-12T13:49:03.593Z,67.31
2022-10-12T13:51:31.768Z,67.87
2022-10-12T13:53:59.373Z,67.17
2022-10-12T13:56:30.249Z,67.70
2022-10-12T13:59:06.720Z,67.87
2022-10-12T14:02:02.005Z,68.03
2022-10-12T14:04:35.564Z,68.33
2022-10-12T14:07:07.791Z,67.88
2022-10-12T14:09:47.525Z,67.84
2022-10-12T14:12:16.629Z,67.24
2022-10-12T14:14:45.582Z,67.04
2022-10-12T14:17:21.381Z,66.79
2022-10-12T14:19:56.059Z,67.28
2022-10-12T14:22:31.508Z,67.56
2022-10-12T14:25:29.911Z,67.75
2022-10-12T14:28:06.922Z,67.61
2022-10-12T14:30:51.042Z,68.36
2022-10-12T14:33:18.447Z,69.06
2022-10-12T14:35:48.920Z,69.44
2022-10-12T14:38:44.742Z,70.94
2022-10-12T14:41:49.775Z,69.67
2022-10-12T14:44:20.575Z,68.61
2022-10-12T14:46:51.131Z,68.45
2022-10-12T14:49:25.781Z,68.88
2022-10-12T14:51:55.398Z,68.21
2022-10-12T14:54:23.560Z,67.76
2022-10-12T14:56:51.463Z,69.23
2022-10-12T14:59:19.273Z,69.40
2022-10-12T15:01:51.193Z,69.50
2022-10-12T15:04:19.433Z,68.80
2022-10-12T15:06:50.725Z,69.29
2022-10-12T15:09:18.855Z,71.92
2022-10-12T15:11:46.459Z,73.36
2022-10-12T15:14:14.542Z,74.37
2022-10-12T15:16:41.981Z,74.73
2022-10-12T15:19:09.812Z,75.60
2022-10-12T15:21:37.358Z,76.74
2022-10-12T15:24:14.447Z,77.51
2022-10-12T15:26:42.524Z,78.23
2022-10-12T15:29:10.330Z,78.73
2022-10-12T15:31:37.864Z,79.93
2022-10-12T15:34:13.895Z,79.66
2022-10-12T15:36:42.001Z,79.29
2022-10-12T15:39:10.701Z,80.43
2022-10-12T15:41:38.303Z,81.35
2022-10-12T15:44:06.901Z,81.96
2022-10-12T15:46:34.902Z,82.32
2022-10-12T15:49:03.267Z,82.50
2022-10-12T15:51:31.935Z,83.05
2022-10-12T15:54:00.031Z,83.70
2022-10-12T15:56:28.567Z,84.51
2022-10-12T15:58:56.377Z,84.77
2022-10-12T16:01:24.085Z,85.61
2022-10-12T16:03:51.972Z,85.59
2022-10-12T16:06:19.847Z,86.13
2022-10-12T16:08:47.707Z,86.49
2022-10-12T16:11:17.966Z,86.50
2022-10-12T16:13:52.564Z,86.72
2022-10-12T16:16:24.337Z,87.14
2022-10-12T16:18:54.025Z,87.55
2022-10-12T16:21:21.691Z,88.17
2022-10-12T16:23:49.972Z,88.26
2022-10-12T16:26:17.915Z,87.89
2022-10-12T16:28:45.627Z,87.64
2022-10-12T16:31:17.695Z,87.64
2022-10-12T16:33:46.126Z,87.21
2022-10-12T16:36:16.628Z,87.29
2022-10-12T16:38:45.649Z,87.11
2022-10-12T16:41:17.618Z,87.51
2022-10-12T16:43:45.183Z,87.55
2022-10-12T16:46:13.663Z,87.54
2022-10-12T16:48:41.219Z,87.55
2022-10-12T16:51:11.365Z,87.64
2022-10-12T16:53:42.665Z,87.50
2022-10-12T16:56:10.974Z,87.84
2022-10-12T16:58:59.221Z,87.91
2022-10-12T17:01:27.082Z,87.94
2022-10-12T17:03:55.012Z,88.08
2022-10-12T17:06:22.900Z,88.27
2022-10-12T17:08:50.369Z,88.21
2022-10-12T17:11:18.312Z,88.38
2022-10-12T17:13:49.124Z,88.42
2022-10-12T17:16:37.105Z,88.76
2022-10-12T17:19:04.790Z,89.39
2022-10-12T17:21:32.974Z,89.25
2022-10-12T17:24:02.495Z,89.51
2022-10-12T17:26:30.737Z,89.65
2022-10-12T17:28:58.510Z,90.08
2022-10-12T17:31:26.431Z,89.84
2022-10-12T17:33:54.348Z,89.76
2022-10-12T17:36:27.189Z,89.88
2022-10-12T17:38:58.515Z,89.67
2022-10-12T17:41:28.706Z,89.54
2022-10-12T17:43:58.092Z,89.74
2022-10-12T17:46:25.983Z,89.56
2022-10-12T17:48:54.131Z,89.93
2022-10-12T17:51:22.103Z,90.07
2022-10-12T17:53:49.692Z,90.10
2022-10-12T17:56:17.547Z,90.37
2022-10-12T17:58:45.284Z,90.43
2022-10-12T18:01:16.917Z,90.32
2022-10-12T18:03:47.370Z,90.49
2022-10-12T18:06:21.308Z,90.52
2022-10-12T18:08:50.812Z,90.84
2022-10-12T18:11:20.738Z,90.80
2022-10-12T18:13:53.417Z,91.18
2022-10-12T18:16:34.149Z,91.15
2022-10-12T18:19:04.815Z,91.55
2022-10-12T18:21:34.325Z,91.50
2022-10-12T18:24:16.143Z,91.68
2022-10-12T18:26:46.325Z,91.50
2022-10-12T18:29:16.444Z,92.12
2022-10-12T18:31:44.293Z,91.83
2022-10-12T18:34:11.945Z,91.93
2022-10-12T18:36:43.634Z,92.08
2022-10-12T18:39:11.356Z,92.14
2022-10-12T18:41:39.067Z,92.51
2022-10-12T18:44:06.969Z,92.44
2022-10-12T18:46:36.764Z,92.31
2022-10-12T18:49:08.144Z,92.47
2022-10-12T18:51:41.358Z,92.56
2022-10-12T18:54:13.115Z,92.63
2022-10-12T18:56:41.805Z,92.60
2022-10-12T18:59:11.433Z,92.65
2022-10-12T19:01:39.700Z,92.71
2022-10-12T19:04:07.312Z,92.77
2022-10-12T19:06:38.553Z,92.66
2022-10-12T19:09:06.447Z,92.65
2022-10-12T19:11:34.662Z,92.80
2022-10-12T19:14:08.777Z,93.13
2022-10-12T19:16:37.230Z,93.41
2022-10-12T19:19:16.927Z,93.47
2022-10-12T19:21:48.028Z,93.67
2022-10-12T19:24:16.336Z,93.85
2022-10-12T19:26:44.869Z,94.13
2022-10-12T19:29:13.005Z,94.14
2022-10-12T19:31:45.623Z,94.06
2022-10-12T19:34:15.537Z,94.35
2022-10-12T19:36:43.430Z,94.77
2022-10-12T19:39:19.762Z,94.90
2022-10-12T19:41:48.970Z,95.38
2022-10-12T19:44:17.434Z,95.59
2022-10-12T19:46:47.879Z,95.92
2022-10-12T19:49:18.549Z,95.89
2022-10-12T19:51:47.782Z,95.86
2022-10-12T19:54:19.686Z,95.91
2022-10-12T19:56:48.165Z,96.34
2022-10-12T19:59:16.222Z,96.33
2022-10-12T20:01:48.101Z,96.57
2022-10-12T20:04:16.235Z,96.48
2022-10-12T20:06:43.717Z,96.58
2022-10-12T20:09:11.662Z,96.63
2022-10-12T20:11:39.779Z,96.73
2022-10-12T20:14:07.799Z,97.27
2022-10-12T20:16:37.529Z,96.92
2022-10-12T20:19:07.086Z,96.96
2022-10-12T20:21:36.778Z,96.95
2022-10-12T20:24:24.378Z,97.24
2022-10-12T20:26:54.058Z,97.78
2022-10-12T20:29:24.110Z,97.87
2022-10-12T20:31:51.629Z,97.96
2022-10-12T20:34:19.326Z,97.76
2022-10-12T20:36:47.897Z,97.73
2022-10-12T20:39:15.685Z,97.57
2022-10-12T20:41:43.563Z,97.68
2022-10-12T20:44:11.137Z,97.87
2022-10-12T20:46:38.963Z,97.67
2022-10-12T20:49:06.788Z,97.63
2022-10-12T20:51:36.645Z,97.84
2022-10-12T20:54:06.606Z,97.82
2022-10-12T20:56:34.793Z,98.35
2022-10-12T20:59:02.370Z,98.54
2022-10-12T21:01:30.061Z,98.73
2022-10-12T21:03:58.285Z,98.93
2022-10-12T21:06:26.082Z,99.15
2022-10-12T21:08:56.782Z,99.29
2022-10-12T21:11:26.359Z,99.46
2022-10-12T21:13:55.064Z,99.57
2022-10-12T21:16:22.826Z,99.03
2022-10-12T21:18:54.988Z,98.65
2022-10-12T21:21:25.351Z,98.21
2022-10-12T21:24:00.299Z,98.44
2022-10-12T21:26:31.096Z,98.52
2022-10-12T21:29:00.499Z,99.09
2022-10-12T21:31:32.207Z,99.25
2022-10-12T21:34:02.881Z,99.35
2022-10-12T21:36:31.823Z,99.58
2022-10-12T21:38:59.842Z,100.00
2022-10-12T21:41:29.841Z,99.87
2022-10-12T21:43:58.508Z,100.00
2022-10-12T21:46:30.055Z,100.00
2022-10-12T21:48:59.584Z,100.00
2022-10-12T21:51:30.453Z,100.00
2022-10-12T21:53:58.580Z,100.00
2022-10-12T21:56:32.383Z,100.00
2022-10-12T21:59:02.386Z,100.00
2022-10-12T22:01:36.396Z,100.00
2022-10-12T22:04:14.159Z,100.00
2022-10-12T22:06:43.529Z,100.00
2022-10-12T22:09:16.864Z,100.00
2022-10-12T22:11:45.821Z,99.78
2022-10-12T22:14:17.843Z,99.84
2022-10-12T22:16:46.448Z,99.13
2022-10-12T22:19:19.965Z,98.24
2022-10-12T22:21:50.053Z,97.65
2022-10-12T22:24:19.497Z,97.09
2022-10-12T22:26:47.415Z,96.48
2022-10-12T22:29:15.277Z,95.95
2022-10-12T22:31:44.534Z,95.63
2022-10-12T22:34:13.783Z,94.60
2022-10-12T22:36:43.436Z,94.46
2022-10-12T22:39:11.087Z,93.81
2022-10-12T22:41:38.605Z,93.76
2022-10-12T22:44:06.438Z,93.54
2022-10-12T22:46:33.914Z,93.37
2022-10-12T22:49:03.332Z,93.19
2022-10-12T22:51:41.050Z,92.34
2022-10-12T22:54:09.719Z,92.28
2022-10-12T22:56:42.611Z,92.28
2022-10-12T22:59:15.619Z,92.15
2022-10-12T23:01:44.207Z,92.13
2022-10-12T23:04:11.900Z,91.67
2022-10-12T23:06:39.398Z,91.71
2022-10-12T23:09:07.233Z,91.68
2022-10-12T23:11:34.723Z,91.81
2022-10-12T23:14:02.589Z,91.37
2022-10-12T23:16:32.537Z,91.40
2022-10-12T23:19:03.572Z,91.21
2022-10-12T23:21:33.886Z,91.59
2022-10-12T23:24:02.663Z,91.07
2022-10-12T23:26:30.690Z,91.40
2022-10-12T23:28:58.580Z,91.10
2022-10-12T23:31:29.666Z,90.96
2022-10-12T23:33:59.711Z,91.00
2022-10-12T23:36:28.495Z,90.88
2022-10-12T23:38:56.007Z,90.60
2022-10-12T23:41:23.589Z,91.35
2022-10-12T23:43:51.356Z,91.60
2022-10-12T23:46:18.868Z,91.44
2022-10-12T23:48:46.406Z,91.94
2022-10-12T23:51:14.223Z,92.12
2022-10-12T23:53:42.622Z,91.99
2022-10-12T23:56:10.891Z,92.44
2022-10-12T23:58:38.765Z,91.85
